Time;durP1;ratioP1;P1;durP2;ratioP2;P2;SDS_P1;SDS_P2;PMS_P1;PMS_P2;Temp;Humidity;BMP_temperature;BMP_pressure;BME280_temperature;BME280_humidity;BME280_pressure;Samples;Min_cycle;Max_cycle;Signal;HPM_P1;HPM_P2
2021/03/24 00:00:41;;;;;;;13.38;7.50;;;8.80;73.00;;;;;;4910414;29;20031;-62
2021/03/24 00:03:08;;;;;;;12.95;6.75;;;8.70;73.00;;;;;;4891547;29;20043;-62
2021/03/24 00:05:37;;;;;;;9.80;6.65;;;8.80;72.30;;;;;;4912617;29;20122;-62
2021/03/24 00:08:03;;;;;;;10.15;6.13;;;8.70;72.70;;;;;;4908445;29;20036;-61
2021/03/24 00:10:30;;;;;;;12.27;6.70;;;8.70;72.60;;;;;;4911627;29;20051;-61
2021/03/24 00:12:58;;;;;;;11.43;6.72;;;8.70;72.90;;;;;;4908613;29;20040;-61
2021/03/24 00:15:25;;;;;;;9.30;6.47;;;8.70;72.60;;;;;;4910839;29;20043;-61
2021/03/24 00:17:51;;;;;;;9.63;5.90;;;8.70;72.20;;;;;;4905550;29;20036;-62
2021/03/24 00:20:21;;;;;;;12.32;7.53;;;8.70;72.60;;;;;;4909234;29;20855;-62
2021/03/24 00:22:47;;;;;;;11.88;7.40;;;8.70;72.70;;;;;;4908711;29;20043;-61
2021/03/24 00:25:15;;;;;;;12.02;6.63;;;8.70;72.30;;;;;;4896935;29;20481;-61
2021/03/24 00:27:42;;;;;;;13.30;7.00;;;8.70;72.00;;;;;;4891684;29;20492;-61
2021/03/24 00:30:09;;;;;;;13.88;7.38;;;8.70;72.30;;;;;;4907820;29;20075;-62
2021/03/24 00:32:36;;;;;;;14.40;7.30;;;8.70;71.60;;;;;;4924801;29;20044;-61
2021/03/24 00:35:03;;;;;;;13.98;7.68;;;8.70;72.00;;;;;;4910681;29;20040;-61
2021/03/24 00:37:28;;;;;;;16.25;7.72;;;8.70;72.10;;;;;;4912442;29;20542;-62
2021/03/24 00:39:54;;;;;;;13.18;7.22;;;8.70;71.20;;;;;;4912336;29;20036;-62
2021/03/24 00:42:19;;;;;;;13.43;6.97;;;8.70;71.10;;;;;;4908545;29;20040;-62
2021/03/24 00:44:45;;;;;;;17.15;7.75;;;8.70;71.60;;;;;;4913446;29;20032;-62
2021/03/24 00:47:11;;;;;;;11.80;6.97;;;8.60;72.90;;;;;;4910459;29;20044;-62
2021/03/24 00:49:36;;;;;;;12.40;6.65;;;8.60;72.50;;;;;;4915779;29;20039;-62
2021/03/24 00:52:03;;;;;;;13.00;7.38;;;8.60;72.80;;;;;;4911013;29;20754;-62
2021/03/24 00:54:28;;;;;;;12.38;7.20;;;8.60;73.10;;;;;;4913550;29;20051;-62
2021/03/24 00:56:55;;;;;;;12.50;7.13;;;8.70;71.80;;;;;;4910139;29;20716;-61
2021/03/24 00:59:20;;;;;;;12.07;6.25;;;8.70;72.40;;;;;;4911913;29;20051;-62
2021/03/24 01:01:46;;;;;;;12.98;6.70;;;8.60;72.50;;;;;;4911331;29;20028;-66
2021/03/24 01:04:12;;;;;;;12.10;7.20;;;8.70;72.70;;;;;;4910786;29;20031;-67
2021/03/24 01:06:40;;;;;;;12.20;7.13;;;8.70;72.30;;;;;;4912213;29;20036;-66
2021/03/24 01:09:09;;;;;;;11.00;6.88;;;8.70;71.60;;;;;;4908388;29;20089;-66
2021/03/24 01:11:36;;;;;;;13.95;7.28;;;8.70;72.30;;;;;;4911791;29;20047;-66
2021/03/24 01:14:03;;;;;;;11.75;6.22;;;8.70;72.80;;;;;;4894144;29;20043;-66
2021/03/24 01:16:29;;;;;;;12.63;7.78;;;8.70;72.90;;;;;;4911932;29;20792;-68
2021/03/24 01:18:54;;;;;;;11.30;6.47;;;8.70;73.50;;;;;;4910815;29;20040;-66
2021/03/24 01:21:20;;;;;;;11.57;7.00;;;8.70;73.70;;;;;;4910900;29;20043;-66
2021/03/24 01:23:46;;;;;;;11.50;6.10;;;8.60;73.60;;;;;;4912260;29;20078;-67
2021/03/24 01:26:11;;;;;;;12.18;7.60;;;8.70;73.20;;;;;;4909612;29;20036;-66
2021/03/24 01:28:37;;;;;;;14.32;6.63;;;8.70;73.30;;;;;;4913018;29;20103;-66
2021/03/24 01:31:03;;;;;;;12.90;7.68;;;8.70;73.30;;;;;;4909359;29;20076;-67
2021/03/24 01:33:29;;;;;;;9.73;6.28;;;8.70;73.50;;;;;;4912572;29;20044;-66
2021/03/24 01:35:55;;;;;;;14.15;8.52;;;8.60;73.40;;;;;;4908722;29;20032;-66
2021/03/24 01:38:22;;;;;;;14.75;8.30;;;8.70;72.80;;;;;;4912242;29;20071;-66
2021/03/24 01:40:54;;;;;;;14.35;8.38;;;8.70;71.80;;;;;;4926819;29;20040;-68
2021/03/24 01:43:25;;;;;;;10.88;7.57;;;8.70;72.30;;;;;;4910603;29;20042;-66
2021/03/24 01:46:19;;;;;;;14.05;8.00;;;8.70;72.40;;;;;;4893939;29;20039;-67
2021/03/24 01:49:20;;;;;;;16.98;8.18;;;8.70;71.80;;;;;;4910414;29;20036;-66
2021/03/24 01:52:03;;;;;;;11.25;7.53;;;8.70;72.20;;;;;;4907316;29;20135;-67
2021/03/24 01:54:43;;;;;;;10.85;6.70;;;8.60;72.30;;;;;;4911031;29;20043;-66
2021/03/24 01:57:26;;;;;;;13.25;7.80;;;8.60;72.80;;;;;;4909079;29;20040;-66
2021/03/24 01:59:53;;;;;;;15.57;8.80;;;8.60;73.70;;;;;;4906523;29;20047;-66
2021/03/24 02:02:26;;;;;;;13.15;7.65;;;8.60;74.10;;;;;;4912063;29;20082;-66
2021/03/24 02:04:54;;;;;;;12.00;7.18;;;8.50;74.00;;;;;;4906128;29;20051;-66
2021/03/24 02:07:48;;;;;;;14.63;7.72;;;8.60;73.80;;;;;;4912158;29;20035;-66
2021/03/24 02:10:25;;;;;;;13.68;8.35;;;8.60;73.60;;;;;;4910616;29;20035;-66
2021/03/24 02:13:03;;;;;;;12.63;7.72;;;8.60;73.60;;;;;;4910948;29;20127;-68
2021/03/24 02:15:33;;;;;;;15.27;8.30;;;8.60;73.80;;;;;;4910403;29;20071;-68
2021/03/24 02:18:01;;;;;;;15.80;7.80;;;8.60;74.40;;;;;;4908550;29;20048;-66
2021/03/24 02:21:04;;;;;;;13.85;8.70;;;8.50;74.40;;;;;;4911463;29;20038;-66
2021/03/24 02:23:44;;;;;;;13.50;8.13;;;8.50;74.50;;;;;;4908474;29;20444;-67
2021/03/24 02:26:19;;;;;;;13.98;8.60;;;8.50;74.30;;;;;;4910363;29;20032;-66
2021/03/24 02:28:47;;;;;;;14.32;9.15;;;8.50;74.00;;;;;;4911426;29;20040;-66
2021/03/24 02:31:16;;;;;;;14.23;8.40;;;8.50;73.80;;;;;;4910983;29;20088;-66
2021/03/24 02:33:44;;;;;;;12.82;7.88;;;8.50;74.00;;;;;;4910270;29;20138;-66
2021/03/24 02:36:14;;;;;;;14.40;8.40;;;8.60;74.10;;;;;;4909619;29;20095;-66
2021/03/24 02:38:43;;;;;;;15.25;8.40;;;8.50;74.10;;;;;;4909951;29;20221;-66
2021/03/24 02:41:11;;;;;;;16.85;9.07;;;8.50;74.00;;;;;;4909431;29;20548;-66
2021/03/24 02:43:38;;;;;;;16.73;9.23;;;8.50;73.70;;;;;;4909533;29;20027;-67
2021/03/24 02:46:07;;;;;;;17.52;9.85;;;8.50;72.80;;;;;;4911199;29;20091;-67
2021/03/24 02:48:36;;;;;;;15.55;9.68;;;8.60;72.80;;;;;;4909625;29;20601;-66
2021/03/24 02:51:06;;;;;;;13.57;8.20;;;8.50;73.30;;;;;;4909474;29;20849;-67
2021/03/24 02:53:33;;;;;;;13.43;7.80;;;8.60;73.60;;;;;;4910071;29;20145;-66
2021/03/24 02:56:02;;;;;;;17.38;10.20;;;8.60;74.20;;;;;;4910092;29;20969;-67
2021/03/24 02:58:28;;;;;;;18.00;9.32;;;8.60;73.60;;;;;;4909860;29;20048;-66
2021/03/24 03:00:56;;;;;;;16.50;9.30;;;8.60;72.80;;;;;;4910332;29;20129;-66
2021/03/24 03:03:37;;;;;;;14.38;8.98;;;8.50;73.20;;;;;;4910146;29;20028;-67
2021/03/24 03:06:05;;;;;;;16.83;9.35;;;8.50;74.20;;;;;;4909056;29;20528;-66
2021/03/24 03:08:55;;;;;;;16.92;9.60;;;8.40;74.70;;;;;;4910718;29;20036;-66
2021/03/24 03:11:35;;;;;;;16.92;9.13;;;8.40;74.90;;;;;;4912020;29;20039;-66
2021/03/24 03:14:06;;;;;;;19.65;9.75;;;8.40;74.90;;;;;;4924244;29;20119;-66
2021/03/24 03:16:40;;;;;;;16.40;10.02;;;8.30;74.90;;;;;;4908728;29;20035;-66
2021/03/24 03:19:38;;;;;;;15.50;9.60;;;8.30;74.60;;;;;;4909657;29;20058;-66
2021/03/24 03:22:09;;;;;;;16.30;10.13;;;8.30;75.20;;;;;;4900686;29;20953;-66
2021/03/24 03:24:45;;;;;;;19.50;10.85;;;8.30;75.20;;;;;;4910055;29;20063;-66
2021/03/24 03:27:13;;;;;;;21.33;11.23;;;8.30;73.90;;;;;;4909199;29;20095;-66
2021/03/24 03:29:41;;;;;;;18.45;10.20;;;8.30;74.00;;;;;;4911797;29;20061;-66
2021/03/24 03:32:09;;;;;;;18.70;11.27;;;8.30;74.40;;;;;;4908433;29;20519;-66
2021/03/24 03:34:36;;;;;;;19.33;10.13;;;8.20;74.40;;;;;;4906012;29;20784;-67
2021/03/24 03:37:03;;;;;;;20.48;10.52;;;8.20;74.80;;;;;;4908392;29;20861;-67
2021/03/24 03:39:30;;;;;;;18.52;10.43;;;8.20;75.20;;;;;;4912451;29;20062;-67
2021/03/24 03:42:00;;;;;;;18.40;10.40;;;8.20;75.00;;;;;;4909212;29;20830;-66
2021/03/24 03:44:27;;;;;;;23.17;11.30;;;8.20;74.80;;;;;;4912352;29;20082;-68
2021/03/24 03:46:55;;;;;;;16.63;10.15;;;8.20;75.10;;;;;;4907888;29;20058;-66
2021/03/24 03:49:22;;;;;;;19.88;10.45;;;8.20;75.20;;;;;;4912211;29;20035;-66
2021/03/24 03:52:17;;;;;;;19.05;10.52;;;8.10;75.20;;;;;;4909217;29;20054;-66
2021/03/24 03:55:18;;;;;;;20.63;11.13;;;8.10;75.50;;;;;;4908939;29;20040;-67
2021/03/24 03:57:52;;;;;;;17.73;11.05;;;8.10;75.70;;;;;;4902673;29;20162;-67
2021/03/24 04:00:38;;;;;;;22.30;10.48;;;8.00;75.40;;;;;;4911796;29;20068;-67
2021/03/24 04:03:03;;;;;;;21.08;11.70;;;8.00;75.20;;;;;;4909664;29;20044;-67
2021/03/24 04:05:40;;;;;;;21.80;11.35;;;8.10;74.90;;;;;;4914391;29;20047;-66
2021/03/24 04:08:34;;;;;;;20.75;12.05;;;8.10;75.40;;;;;;4916710;29;20060;-67
2021/03/24 04:11:07;;;;;;;19.50;11.30;;;8.10;75.60;;;;;;4910571;29;20043;-66
2021/03/24 04:13:35;;;;;;;20.63;11.38;;;8.10;75.60;;;;;;4900270;29;20035;-68
2021/03/24 04:16:03;;;;;;;20.25;11.65;;;8.10;75.70;;;;;;4920108;29;20063;-68
2021/03/24 04:18:47;;;;;;;22.95;12.45;;;8.10;76.20;;;;;;4914433;29;20123;-66
2021/03/24 04:21:14;;;;;;;22.83;11.80;;;8.10;75.70;;;;;;4917521;29;20032;-66
2021/03/24 04:23:45;;;;;;;23.70;12.05;;;8.10;75.70;;;;;;4920473;29;20063;-68
2021/03/24 04:26:24;;;;;;;21.23;12.38;;;8.20;75.60;;;;;;4922680;29;20154;-67
2021/03/24 04:28:56;;;;;;;24.25;12.27;;;8.20;75.70;;;;;;4916998;29;20082;-66
2021/03/24 04:31:25;;;;;;;28.52;14.90;;;8.20;76.10;;;;;;4921630;29;20098;-66
2021/03/24 04:33:52;;;;;;;24.05;12.93;;;8.20;75.00;;;;;;4923412;29;20115;-66
2021/03/24 04:36:29;;;;;;;20.58;12.52;;;8.20;74.40;;;;;;4917654;29;20659;-66
2021/03/24 04:39:00;;;;;;;22.85;13.27;;;8.20;75.30;;;;;;4916656;29;20397;-66
2021/03/24 04:41:30;;;;;;;22.88;12.63;;;8.20;75.30;;;;;;4919877;29;20036;-66
2021/03/24 04:44:05;;;;;;;21.85;13.57;;;8.20;75.40;;;;;;4918451;29;20035;-68
2021/03/24 04:46:37;;;;;;;29.88;15.98;;;8.20;75.80;;;;;;4918273;29;20391;-66
2021/03/24 04:49:16;;;;;;;22.55;14.25;;;8.30;75.00;;;;;;4919891;29;20051;-66
2021/03/24 04:51:42;;;;;;;27.00;14.43;;;8.30;74.80;;;;;;4921793;29;20063;-67
2021/03/24 04:54:14;;;;;;;26.08;14.18;;;8.30;74.80;;;;;;4921065;29;20062;-66
2021/03/24 04:56:43;;;;;;;22.85;13.60;;;8.20;75.40;;;;;;4916273;29;20059;-66
2021/03/24 04:59:32;;;;;;;24.67;14.13;;;8.20;75.20;;;;;;4936515;29;20048;-68
2021/03/24 05:02:03;;;;;;;24.00;13.23;;;8.20;75.30;;;;;;4915262;29;20765;-66
2021/03/24 05:04:40;;;;;;;26.65;15.25;;;8.20;75.40;;;;;;4919581;29;20759;-66
2021/03/24 05:07:25;;;;;;;32.58;17.08;;;8.20;75.60;;;;;;4920664;29;20039;-66
2021/03/24 05:09:50;;;;;;;34.95;18.05;;;8.20;75.50;;;;;;4914656;29;20043;-66
2021/03/24 05:12:24;;;;;;;38.38;18.52;;;8.20;75.40;;;;;;4920472;29;20532;-67
2021/03/24 05:14:52;;;;;;;36.03;19.80;;;8.20;75.30;;;;;;4914303;29;20126;-67
2021/03/24 05:17:25;;;;;;;32.80;19.10;;;8.20;75.40;;;;;;4918206;29;20050;-66
2021/03/24 05:19:58;;;;;;;35.67;20.42;;;8.20;75.60;;;;;;4914055;29;20045;-66
2021/03/24 05:22:32;;;;;;;42.05;21.92;;;8.20;75.80;;;;;;4921374;29;20039;-66
2021/03/24 05:25:12;;;;;;;38.55;22.02;;;8.20;76.00;;;;;;4920659;29;20023;-66
2021/03/24 05:27:42;;;;;;;40.83;23.58;;;8.20;75.80;;;;;;4906956;29;20039;-67
2021/03/24 05:30:33;;;;;;;43.97;25.13;;;8.20;75.70;;;;;;4919636;29;20594;-66
2021/03/24 05:33:03;;;;;;;49.80;26.40;;;8.20;75.70;;;;;;4907706;29;20107;-66
2021/03/24 05:35:56;;;;;;;48.72;26.42;;;8.30;75.70;;;;;;4920819;29;20507;-67
2021/03/24 05:38:24;;;;;;;52.92;27.38;;;8.30;75.70;;;;;;4911804;29;20059;-67
2021/03/24 05:41:10;;;;;;;48.30;25.73;;;8.30;75.60;;;;;;4915609;29;20035;-67
2021/03/24 05:43:55;;;;;;;53.33;28.10;;;8.30;75.50;;;;;;4915248;29;20936;-66
2021/03/24 05:46:51;;;;;;;57.45;29.20;;;8.40;75.50;;;;;;4917726;29;20106;-66
2021/03/24 05:49:46;;;;;;;56.08;28.40;;;8.50;75.30;;;;;;4919445;29;20086;-66
2021/03/24 05:52:42;;;;;;;57.70;30.45;;;8.50;75.50;;;;;;4891252;29;20051;-67
2021/03/24 05:55:46;;;;;;;55.40;29.17;;;8.50;75.40;;;;;;4913324;29;20036;-67
2021/03/24 05:58:45;;;;;;;48.58;27.98;;;8.60;75.40;;;;;;4891870;29;20051;-68
2021/03/24 06:01:17;;;;;;;54.83;29.60;;;8.60;76.10;;;;;;4918384;29;20031;-67
2021/03/24 06:03:46;;;;;;;61.60;31.10;;;8.70;75.10;;;;;;4904643;29;20122;-68
2021/03/24 06:07:03;;;;;;;58.55;30.52;;;8.70;74.30;;;;;;4920083;29;20106;-66
2021/03/24 06:09:45;;;;;;;57.15;30.48;;;8.70;73.80;;;;;;4837173;29;20135;-67
2021/03/24 06:12:43;;;;;;;56.95;31.55;;;8.70;74.30;;;;;;4838822;29;20123;-67
2021/03/24 06:15:31;;;;;;;58.25;29.95;;;8.80;74.50;;;;;;4908229;29;20060;-67
2021/03/24 06:18:22;;;;;;;61.10;29.73;;;8.80;73.80;;;;;;4914896;29;20488;-67
2021/03/24 06:21:00;;;;;;;56.55;29.17;;;8.80;74.00;;;;;;4910326;29;20039;-67
2021/03/24 06:23:57;;;;;;;54.47;30.40;;;8.80;74.20;;;;;;4915203;29;20027;-67
2021/03/24 06:26:59;;;;;;;59.40;31.00;;;8.90;74.20;;;;;;4883403;29;20122;-66
2021/03/24 06:29:31;;;;;;;63.90;31.42;;;8.90;74.00;;;;;;4915592;29;20090;-66
2021/03/24 06:32:21;;;;;;;56.97;30.92;;;8.90;73.80;;;;;;4916438;29;20138;-67
2021/03/24 06:35:01;;;;;;;57.10;30.42;;;8.90;73.60;;;;;;4892522;29;20048;-67
2021/03/24 06:38:01;;;;;;;60.45;30.33;;;8.90;73.80;;;;;;4916415;29;20043;-68
2021/03/24 06:40:54;;;;;;;64.55;31.00;;;9.00;73.90;;;;;;4911019;29;20044;-66
2021/03/24 06:43:41;;;;;;;66.22;33.65;;;9.00;73.50;;;;;;4911030;29;20039;-66
2021/03/24 06:46:32;;;;;;;56.55;31.33;;;9.10;73.50;;;;;;4930607;29;20046;-68
2021/03/24 06:49:15;;;;;;;58.47;31.73;;;9.20;73.40;;;;;;4913802;29;20038;-62
2021/03/24 06:52:35;;;;;;;57.35;30.23;;;9.20;73.60;;;;;;4913088;29;20492;-61
2021/03/24 06:55:16;;;;;;;67.88;31.80;;;9.30;73.30;;;;;;4911252;29;20631;-62
2021/03/24 06:57:44;;;;;;;56.88;30.95;;;9.40;73.00;;;;;;4916219;29;20085;-62
2021/03/24 07:00:28;;;;;;;60.65;31.70;;;9.30;72.50;;;;;;4914956;29;20032;-62
2021/03/24 07:03:26;;;;;;;59.55;32.72;;;9.40;72.60;;;;;;4911681;29;20032;-61
2021/03/24 07:06:02;;;;;;;63.50;31.73;;;9.50;72.50;;;;;;4908271;29;20032;-61
2021/03/24 07:08:43;;;;;;;66.00;31.83;;;9.50;71.70;;;;;;4916566;29;20055;-61
2021/03/24 07:11:18;;;;;;;57.65;30.70;;;9.50;72.60;;;;;;4914297;29;20730;-62
2021/03/24 07:14:09;;;;;;;66.60;32.05;;;9.60;71.60;;;;;;4912355;29;20058;-62
2021/03/24 07:16:34;;;;;;;63.65;32.35;;;9.60;72.00;;;;;;4913157;29;20115;-62
2021/03/24 07:19:03;;;;;;;61.08;32.08;;;9.70;71.80;;;;;;4913280;29;20555;-62
2021/03/24 07:22:11;;;;;;;62.80;31.77;;;9.70;71.70;;;;;;4915091;29;20067;-62
2021/03/24 07:24:56;;;;;;;60.30;32.33;;;9.80;71.50;;;;;;4916506;29;20127;-62
2021/03/24 07:27:46;;;;;;;59.25;31.60;;;9.90;71.80;;;;;;4916426;29;20035;-62
2021/03/24 07:30:24;;;;;;;67.65;32.08;;;9.90;71.20;;;;;;4902263;29;20058;-62
2021/03/24 07:32:58;;;;;;;67.38;33.67;;;9.90;71.20;;;;;;4911758;29;20047;-62
2021/03/24 07:35:44;;;;;;;66.53;33.38;;;9.90;71.00;;;;;;4915038;29;20056;-63
2021/03/24 07:38:18;;;;;;;69.55;33.35;;;10.00;71.40;;;;;;4908425;29;20949;-62
2021/03/24 07:40:44;;;;;;;56.92;30.38;;;10.10;71.20;;;;;;4916790;29;20475;-62
2021/03/24 07:43:22;;;;;;;73.20;35.72;;;10.20;70.90;;;;;;4931079;28;20032;-62
2021/03/24 07:46:10;;;;;;;66.30;32.42;;;10.20;70.40;;;;;;4918140;29;20044;-62
2021/03/24 07:48:38;;;;;;;63.40;32.55;;;10.20;70.70;;;;;;4911003;29;20770;-62
2021/03/24 07:51:22;;;;;;;70.35;32.85;;;10.30;70.60;;;;;;4915753;29;20047;-62
2021/03/24 07:54:19;;;;;;;71.07;36.13;;;10.40;70.40;;;;;;4914692;29;20043;-61
2021/03/24 07:57:12;;;;;;;69.82;33.38;;;10.50;69.00;;;;;;4912519;29;20048;-61
2021/03/24 07:59:50;;;;;;;69.13;35.22;;;10.60;69.50;;;;;;4918867;29;20090;-62
2021/03/24 08:02:40;;;;;;;69.28;34.63;;;10.70;69.10;;;;;;4911357;29;20111;-62
2021/03/24 08:05:18;;;;;;;76.88;35.08;;;10.80;68.80;;;;;;4918214;29;20032;-61
2021/03/24 08:07:55;;;;;;;75.65;35.95;;;10.90;68.90;;;;;;4917126;29;20127;-61
2021/03/24 08:10:46;;;;;;;66.10;33.38;;;10.90;68.10;;;;;;4919020;29;20090;-62
2021/03/24 08:13:33;;;;;;;71.53;35.78;;;11.00;68.20;;;;;;4914272;29;20043;-61
2021/03/24 08:16:20;;;;;;;71.28;35.25;;;11.00;68.00;;;;;;4915599;29;20103;-61
2021/03/24 08:19:07;;;;;;;63.75;34.13;;;11.10;67.10;;;;;;4921006;29;20077;-61
2021/03/24 08:21:50;;;;;;;70.30;34.45;;;11.20;67.10;;;;;;4910296;29;20591;-61
2021/03/24 08:24:33;;;;;;;70.43;34.20;;;11.30;67.20;;;;;;4909875;29;20044;-62
2021/03/24 08:27:05;;;;;;;64.25;33.88;;;11.40;66.70;;;;;;4914017;29;20038;-61
2021/03/24 08:29:44;;;;;;;71.20;36.70;;;11.50;66.40;;;;;;4921418;29;20050;-62
2021/03/24 08:32:32;;;;;;;71.55;36.67;;;11.70;65.80;;;;;;4920354;29;20669;-61
2021/03/24 08:35:30;;;;;;;75.45;36.53;;;11.80;65.10;;;;;;4916810;29;20047;-61
2021/03/24 08:38:23;;;;;;;70.53;36.65;;;12.00;64.40;;;;;;4911850;29;20038;-64
2021/03/24 08:41:05;;;;;;;75.75;37.05;;;12.00;64.70;;;;;;4908595;29;20051;-62
2021/03/24 08:43:50;;;;;;;72.97;36.17;;;12.10;64.10;;;;;;4914120;29;20028;-62
2021/03/24 08:46:28;;;;;;;72.10;35.75;;;12.10;64.20;;;;;;4892725;29;619682;-61
2021/03/24 08:49:08;;;;;;;72.60;37.22;;;12.10;63.70;;;;;;4912530;29;20528;-62
2021/03/24 08:51:58;;;;;;;68.80;36.03;;;12.10;63.40;;;;;;4913607;29;20507;-62
2021/03/24 08:54:59;;;;;;;76.60;38.03;;;12.20;64.10;;;;;;4916056;29;20531;-62
2021/03/24 08:57:46;;;;;;;69.28;36.10;;;12.30;62.70;;;;;;4911837;29;20570;-62
2021/03/24 09:00:44;;;;;;;66.13;34.72;;;12.40;62.40;;;;;;4919842;29;20140;-61
2021/03/24 09:03:23;;;;;;;66.63;34.38;;;12.40;62.10;;;;;;4901739;29;20048;-62
2021/03/24 09:06:03;;;;;;;68.88;35.03;;;12.40;62.30;;;;;;4911091;29;20110;-62
2021/03/24 09:08:46;;;;;;;71.05;36.15;;;12.50;62.90;;;;;;4920205;29;20047;-61
2021/03/24 09:11:21;;;;;;;66.78;35.95;;;12.60;62.30;;;;;;4914771;29;20039;-61
2021/03/24 09:14:01;;;;;;;74.07;37.55;;;12.70;61.80;;;;;;4925789;29;20046;-62
2021/03/24 09:16:39;;;;;;;70.57;35.63;;;12.70;62.00;;;;;;4911541;29;20039;-62
2021/03/24 09:19:13;;;;;;;60.08;33.97;;;12.70;61.00;;;;;;4914051;29;20043;-61
2021/03/24 09:21:51;;;;;;;68.35;35.47;;;12.70;61.60;;;;;;4918082;29;20042;-62
2021/03/24 09:24:54;;;;;;;67.90;36.60;;;12.70;61.30;;;;;;4914295;29;20031;-62
2021/03/24 09:27:26;;;;;;;81.68;37.72;;;12.70;59.80;;;;;;4910617;29;20035;-62
2021/03/24 09:30:19;;;;;;;65.82;35.30;;;12.70;61.50;;;;;;4917231;29;20051;-62
2021/03/24 09:33:24;;;;;;;69.82;34.45;;;12.80;61.20;;;;;;4911675;29;20071;-62
2021/03/24 09:36:14;;;;;;;65.32;35.03;;;12.80;60.00;;;;;;4915978;29;20039;-61
2021/03/24 09:38:41;;;;;;;68.80;35.33;;;12.80;60.20;;;;;;4920819;29;20122;-62
2021/03/24 09:41:27;;;;;;;72.72;36.78;;;12.90;60.40;;;;;;4910168;29;20054;-61
2021/03/24 09:44:03;;;;;;;62.53;34.47;;;12.80;59.70;;;;;;4913517;29;20056;-62
2021/03/24 09:46:42;;;;;;;59.75;33.10;;;12.80;60.70;;;;;;4913633;29;20055;-62
2021/03/24 09:49:27;;;;;;;71.38;34.38;;;12.90;60.90;;;;;;4915318;29;20054;-62
2021/03/24 09:52:26;;;;;;;66.00;34.20;;;13.10;59.80;;;;;;4918234;29;20039;-61
2021/03/24 09:55:04;;;;;;;62.33;33.83;;;13.20;58.60;;;;;;4913100;29;20040;-61
2021/03/24 09:57:47;;;;;;;62.00;33.35;;;13.30;58.60;;;;;;4913785;29;20504;-62
2021/03/24 10:00:16;;;;;;;59.30;32.53;;;13.30;58.00;;;;;;4919516;29;20067;-62
2021/03/24 10:03:10;;;;;;;61.00;32.45;;;13.30;58.10;;;;;;4917711;29;20040;-61
2021/03/24 10:06:04;;;;;;;55.35;30.25;;;13.40;58.90;;;;;;4914321;29;20767;-61
2021/03/24 10:08:41;;;;;;;57.45;31.60;;;13.60;57.20;;;;;;4911476;29;20162;-61
2021/03/24 10:11:20;;;;;;;54.30;30.83;;;13.80;57.30;;;;;;4913578;29;20036;-61
2021/03/24 10:13:49;;;;;;;50.75;30.40;;;13.80;55.90;;;;;;4915602;29;20046;-61
2021/03/24 10:16:32;;;;;;;52.85;29.55;;;14.00;55.70;;;;;;4911473;29;20138;-61
2021/03/24 10:19:30;;;;;;;56.17;30.27;;;14.10;55.70;;;;;;4907375;29;20039;-61
2021/03/24 10:22:11;;;;;;;54.55;30.58;;;14.10;55.30;;;;;;4906184;29;20052;-61
2021/03/24 10:24:58;;;;;;;52.85;31.25;;;13.90;55.00;;;;;;4917282;29;20480;-61
2021/03/24 10:27:26;;;;;;;;;;;13.90;56.50;;;;;;4914499;29;20040;-62
2021/03/24 10:30:20;;;;;;;62.60;32.35;;;13.90;56.90;;;;;;4917828;29;19910;-61
2021/03/24 10:33:13;;;;;;;62.90;35.83;;;13.90;56.70;;;;;;4910927;29;20048;-61
2021/03/24 10:35:46;;;;;;;63.72;34.75;;;13.90;57.40;;;;;;4901685;29;20059;-62
2021/03/24 10:38:24;;;;;;;63.60;33.17;;;14.00;57.50;;;;;;4909968;29;20131;-62
2021/03/24 10:41:13;;;;;;;55.15;31.02;;;14.10;56.00;;;;;;4908477;29;20074;-62
2021/03/24 10:43:46;;;;;;;51.20;29.50;;;14.20;54.90;;;;;;4916278;29;20047;-61
2021/03/24 10:46:27;;;;;;;52.67;29.85;;;14.20;56.40;;;;;;4916517;29;20043;-61
2021/03/24 10:49:04;;;;;;;38.28;23.38;;;14.10;56.00;;;;;;4913990;29;20444;-61
2021/03/24 10:51:47;;;;;;;35.10;22.15;;;14.30;55.00;;;;;;4914879;29;20103;-61
2021/03/24 10:54:35;;;;;;;38.55;24.63;;;14.60;53.30;;;;;;4914495;29;20039;-61
2021/03/24 10:57:07;;;;;;;37.40;23.88;;;14.90;52.60;;;;;;4914015;29;20090;-61
2021/03/24 10:59:42;;;;;;;41.65;24.58;;;15.00;52.40;;;;;;4920723;29;20163;-62
2021/03/24 11:02:19;;;;;;;42.28;23.95;;;15.00;50.80;;;;;;4915930;29;20040;-61
2021/03/24 11:04:57;;;;;;;42.05;23.65;;;15.00;52.30;;;;;;4917460;29;20043;-61
2021/03/24 11:07:42;;;;;;;41.65;23.73;;;15.10;51.80;;;;;;4908401;29;20052;-61
2021/03/24 11:10:11;;;;;;;40.65;25.30;;;15.20;52.10;;;;;;4913681;29;20651;-61
2021/03/24 11:12:42;;;;;;;39.40;23.23;;;15.30;50.10;;;;;;4916597;29;20046;-61
2021/03/24 11:15:23;;;;;;;39.28;25.17;;;15.40;50.40;;;;;;4915780;29;20036;-62
2021/03/24 11:18:02;;;;;;;43.03;24.55;;;15.20;50.90;;;;;;4915622;29;20063;-61
2021/03/24 11:20:47;;;;;;;44.75;24.75;;;15.20;51.30;;;;;;4918810;29;20040;-61
2021/03/24 11:23:36;;;;;;;43.22;25.70;;;15.20;50.90;;;;;;4914106;29;20054;-62
2021/03/24 11:26:17;;;;;;;41.25;25.02;;;15.10;49.90;;;;;;4910738;29;20039;-61
2021/03/24 11:28:45;;;;;;;50.45;26.08;;;15.10;51.50;;;;;;4908269;29;20032;-61
2021/03/24 11:31:18;;;;;;;45.70;26.42;;;15.10;51.60;;;;;;4913180;29;20040;-61
2021/03/24 11:34:07;;;;;;;43.17;26.73;;;15.10;51.30;;;;;;4889868;29;20044;-62
2021/03/24 11:36:41;;;;;;;46.28;26.38;;;15.00;53.30;;;;;;4910731;29;20034;-61
2021/03/24 11:39:16;;;;;;;39.00;24.25;;;15.10;52.70;;;;;;4916804;29;20139;-62
2021/03/24 11:41:44;;;;;;;40.45;24.02;;;15.10;53.70;;;;;;4916335;29;20036;-61
2021/03/24 11:44:18;;;;;;;40.42;26.55;;;15.10;52.30;;;;;;4914163;29;20094;-63
2021/03/24 11:46:44;;;;;;;40.65;24.58;;;15.10;52.30;;;;;;4912051;29;20489;-62
2021/03/24 11:49:24;;;;;;;37.28;23.27;;;15.20;52.30;;;;;;4910943;29;20067;-62
2021/03/24 11:52:14;;;;;;;38.47;24.42;;;15.30;52.40;;;;;;4906168;29;20038;-62
2021/03/24 11:54:46;;;;;;;43.97;26.05;;;15.20;51.30;;;;;;4907946;29;20043;-61
2021/03/24 11:57:32;;;;;;;41.53;24.65;;;15.20;51.30;;;;;;4914111;29;20463;-62
2021/03/24 12:00:18;;;;;;;42.38;26.08;;;15.30;52.10;;;;;;4909160;29;20040;-62
2021/03/24 12:02:56;;;;;;;39.88;25.25;;;15.40;52.60;;;;;;4904992;29;20040;-61
2021/03/24 12:05:54;;;;;;;39.95;24.50;;;15.50;52.20;;;;;;4912913;29;20503;-64
2021/03/24 12:08:31;;;;;;;43.53;25.55;;;15.40;51.40;;;;;;4908668;29;20075;-61
2021/03/24 12:10:58;;;;;;;41.15;25.08;;;15.40;51.60;;;;;;4909577;29;20043;-61
2021/03/24 12:13:35;;;;;;;38.22;23.65;;;15.30;51.30;;;;;;4916160;29;20826;-61
2021/03/24 12:16:06;;;;;;;43.88;25.92;;;15.50;51.60;;;;;;4906974;29;20146;-63
2021/03/24 12:18:45;;;;;;;45.42;25.38;;;15.50;50.30;;;;;;4912118;29;20062;-61
2021/03/24 12:21:33;;;;;;;40.58;24.98;;;15.50;51.00;;;;;;4909125;29;20505;-62
2021/03/24 12:24:09;;;;;;;41.50;25.45;;;15.40;50.50;;;;;;4911546;29;20831;-61
2021/03/24 12:26:37;;;;;;;37.05;24.27;;;15.30;51.30;;;;;;4911403;29;20039;-61
2021/03/24 12:29:06;;;;;;;39.85;24.50;;;15.20;51.80;;;;;;4910664;29;20091;-62
2021/03/24 12:31:43;;;;;;;39.92;25.58;;;15.10;52.30;;;;;;4921201;29;20046;-62
2021/03/24 12:34:14;;;;;;;40.42;25.88;;;15.00;52.10;;;;;;4914605;29;20086;-62
2021/03/24 12:36:48;;;;;;;41.03;25.63;;;15.00;53.10;;;;;;4916988;29;20071;-61
2021/03/24 12:39:28;;;;;;;39.78;24.02;;;15.00;51.90;;;;;;4918752;29;20126;-66
2021/03/24 12:41:54;;;;;;;44.30;26.92;;;15.10;52.90;;;;;;4910064;29;20032;-62
2021/03/24 12:44:55;;;;;;;39.85;25.83;;;15.30;52.00;;;;;;4912138;29;20718;-62
2021/03/24 12:47:33;;;;;;;44.75;25.40;;;15.30;50.70;;;;;;4891056;29;20817;-62
2021/03/24 12:50:08;;;;;;;44.55;27.10;;;15.20;52.00;;;;;;4914885;29;20028;-62
2021/03/24 12:52:56;;;;;;;51.63;30.65;;;15.20;52.30;;;;;;4914373;29;20043;-62
2021/03/24 12:55:22;;;;;;;53.75;32.65;;;15.20;51.10;;;;;;4907778;29;20805;-62
2021/03/24 12:57:56;;;;;;;51.15;31.60;;;15.10;51.60;;;;;;4913987;29;20036;-62
2021/03/24 13:00:33;;;;;;;57.47;40.25;;;14.90;51.80;;;;;;4915109;29;20296;-62
2021/03/24 13:03:36;;;;;;;49.15;29.48;;;14.80;52.10;;;;;;4913312;29;20124;-62
2021/03/24 13:06:17;;;;;;;48.35;30.30;;;14.70;52.60;;;;;;4914644;29;20027;-62
2021/03/24 13:09:08;;;;;;;41.13;26.15;;;14.70;53.70;;;;;;4914555;29;20480;-62
2021/03/24 13:11:59;;;;;;;49.55;28.67;;;14.70;52.80;;;;;;4873292;29;20044;-62
2021/03/24 13:14:56;;;;;;;50.10;28.88;;;14.90;51.20;;;;;;4912873;29;20480;-62
2021/03/24 13:17:38;;;;;;;46.85;28.58;;;14.70;52.50;;;;;;4911767;29;20138;-62
2021/03/24 13:20:24;;;;;;;51.47;28.42;;;14.70;53.50;;;;;;4918246;29;20040;-62
2021/03/24 13:22:59;;;;;;;53.40;27.70;;;14.70;52.80;;;;;;4912544;29;20043;-61
2021/03/24 13:25:33;;;;;;;51.47;28.45;;;14.80;53.90;;;;;;4917426;29;20421;-62
2021/03/24 13:28:34;;;;;;;48.58;29.58;;;14.80;54.00;;;;;;4907022;29;20044;-63
2021/03/24 13:31:37;;;;;;;53.13;30.95;;;14.90;53.20;;;;;;4886053;29;20086;-62